Euskara    
Meteorología y climatología de Navarra
Datos de la estación - Meteo Navarra

Estación de Doneztebe-Santesteban GN

Altitud 125 m.


Datos desde el 22/11/2020 hasta el 23/11/2020 en horario solar
Los datos son PROVISIONALES

Anterior Página 1 de 1 Siguiente Descargar: Formato para Excel 2000 o superior   Formato csv   Formato para OpenOffice Calc
Fecha Temperatura Humedad relativa Radiación global Insolación Precipitación Vel. viento 10 m Vel. viento 10 m Dir. viento 10 m
°C % W/m² s l/m² m/s km/h °
22/11/2020 0:00 0.4 99 0.0 0 0.0 0.4 1.3 141
22/11/2020 0:10 0.3 99 0.0 0 0.0 0.1 0.3 184
22/11/2020 0:20 0.3 99 0.0 0 0.0 0.2 0.7 242
22/11/2020 0:30 0.3 99 0.0 0 0.0 0.1 0.4 147
22/11/2020 0:40 0.1 99 0.0 0 0.0 0.0 0.0 132
22/11/2020 0:50 0.2 99 0.0 0 0.0 0.3 0.9 164
22/11/2020 1:00 0.4 99 0.0 0 0.0 0.4 1.3 233
22/11/2020 1:10 0.8 99 0.0 0 0.0 0.9 3.2 181
22/11/2020 1:20 1.1 99 0.0 0 0.0 1.6 5.6 143
22/11/2020 1:30 1.3 99 0.0 0 0.0 1.1 4.1 135
22/11/2020 1:40 1.2 98 0.0 0 0.0 1.7 6.2 140
22/11/2020 1:50 1.4 98 0.0 0 0.0 1.4 5.1 126
22/11/2020 2:00 1.5 97 0.0 0 0.0 1.8 6.6 128
22/11/2020 2:10 1.4 97 0.0 0 0.0 1.5 5.3 123
22/11/2020 2:20 1.5 97 0.0 0 0.0 1.8 6.3 136
22/11/2020 2:30 1.7 96 0.0 0 0.0 2.2 7.9 136
22/11/2020 2:40 1.7 95 0.0 0 0.0 2.4 8.7 131
22/11/2020 2:50 1.7 95 0.0 0 0.0 1.8 6.4 129
22/11/2020 3:00 1.5 95 0.0 0 0.0 1.5 5.3 131
22/11/2020 3:10 1.6 95 0.0 0 0.0 2.6 9.2 133
22/11/2020 3:20 1.7 94 0.0 0 0.0 3.2 11.7 123
22/11/2020 3:30 1.4 94 0.0 0 0.0 1.7 6.1 123
22/11/2020 3:40 1.4 95 0.0 0 0.0 2.0 7.3 134
22/11/2020 3:50 1.5 94 0.0 0 0.0 1.9 6.8 138
22/11/2020 4:00 1.6 94 0.0 0 0.0 2.4 8.8 134
22/11/2020 4:10 1.8 93 0.0 0 0.0 2.9 10.4 132
22/11/2020 4:20 1.8 93 0.0 0 0.0 2.7 9.5 140
22/11/2020 4:30 1.8 92 0.0 0 0.0 2.7 9.6 139
22/11/2020 4:40 1.9 92 0.0 0 0.0 2.7 9.6 139
22/11/2020 4:50 1.9 92 0.0 0 0.0 2.9 10.5 129
22/11/2020 5:00 1.8 92 0.0 0 0.0 2.7 9.6 128
22/11/2020 5:10 1.7 92 0.0 0 0.0 2.5 8.9 139
22/11/2020 5:20 1.7 92 0.0 0 0.0 3.0 10.7 141
22/11/2020 5:30 1.7 92 0.0 0 0.0 3.1 11.1 129
22/11/2020 5:40 1.7 92 0.0 0 0.0 3.2 11.7 131
22/11/2020 5:50 1.6 92 0.0 0 0.0 3.1 11.2 128
22/11/2020 6:00 1.6 92 0.0 0 0.0 3.7 13.1 126
22/11/2020 6:10 1.4 92 0.0 0 0.0 2.4 8.5 138
22/11/2020 6:20 1.4 93 0.0 0 0.0 1.9 6.8 139
22/11/2020 6:30 1.4 93 0.0 0 0.0 1.3 4.8 138
22/11/2020 6:40 1.3 93 0.0 0 0.0 2.9 10.6 130
22/11/2020 6:50 1.2 93 0.0 0 0.0 2.2 7.9 140
22/11/2020 7:00 1.4 92 0.0 0 0.0 3.0 10.9 129
22/11/2020 7:10 1.5 92 0.0 0 0.0 2.4 8.6 135
22/11/2020 7:20 1.5 92 0.0 0 0.0 2.3 8.1 135
22/11/2020 7:30 1.5 91 0.0 0 0.0 1.9 7.0 131
22/11/2020 7:40 1.4 92 14.5 0 0.0 1.7 6.0 127
22/11/2020 7:50 1.3 92 21.4 0 0.0 2.1 7.4 133
22/11/2020 8:00 1.6 92 25.9 0 0.0 2.6 9.4 146
22/11/2020 8:10 1.5 92 29.6 0 0.0 1.4 4.9 131
22/11/2020 8:20 1.5 92 56.3 104 0.0 1.6 5.8 132
22/11/2020 8:30 1.7 92 160.1 600 0.0 1.9 6.8 134
22/11/2020 8:40 2.2 91 184.9 600 0.0 2.0 7.1 130
22/11/2020 8:50 2.6 89 209.3 600 0.0 2.8 10.0 124
22/11/2020 9:00 3.1 87 233.2 600 0.0 1.6 5.7 119
22/11/2020 9:10 3.7 87 256.5 600 0.0 1.6 5.9 118
22/11/2020 9:20 4.3 85 275.6 600 0.0 1.6 5.8 131
22/11/2020 9:30 5.0 81 290.0 600 0.0 1.6 5.6 127
22/11/2020 9:40 5.9 77 320.1 600 0.0 1.5 5.2 128
22/11/2020 9:50 6.5 76 338.9 600 0.0 1.7 6.1 131
22/11/2020 10:00 6.8 75 355.6 600 0.0 2.1 7.4 139
22/11/2020 10:10 7.3 73 370.5 600 0.0 2.0 7.3 137
22/11/2020 10:20 8.1 70 371.9 600 0.0 2.0 7.2 148
22/11/2020 10:30 8.5 68 387.6 600 0.0 2.4 8.7 148
22/11/2020 10:40 9.0 66 404.4 600 0.0 2.5 8.9 148
22/11/2020 10:50 9.8 65 418.3 600 0.0 1.8 6.4 147
22/11/2020 11:00 10.3 63 432.1 600 0.0 2.2 8.0 146
22/11/2020 11:10 10.9 61 443.4 600 0.0 2.0 7.2 144
22/11/2020 11:20 11.6 59 452.4 600 0.0 2.3 8.1 147
22/11/2020 11:30 12.2 56 459.0 600 0.0 2.0 7.3 144
22/11/2020 11:40 12.6 54 461.7 600 0.0 2.0 7.2 147
22/11/2020 11:50 13.1 55 463.8 600 0.0 1.8 6.5 153
22/11/2020 12:00 13.8 50 464.2 600 0.0 2.1 7.5 151
22/11/2020 12:10 14.2 50 463.1 600 0.0 1.9 6.9 148
22/11/2020 12:20 14.2 51 459.8 600 0.0 1.4 5.0 152
22/11/2020 12:30 14.4 52 455.5 600 0.0 1.4 4.9 149
22/11/2020 12:40 14.8 52 449.6 600 0.0 1.4 5.0 143
22/11/2020 12:50 15.2 50 443.1 600 0.0 1.3 4.6 141
22/11/2020 13:00 15.5 47 433.7 600 0.0 1.1 4.0 165
22/11/2020 13:10 15.9 48 423.8 600 0.0 0.9 3.3 151
22/11/2020 13:20 15.9 50 411.8 600 0.0 0.7 2.4 159
22/11/2020 13:30 16.0 49 397.2 600 0.0 0.2 0.8 166
22/11/2020 13:40 16.5 45 378.0 600 0.0 0.4 1.5 231
22/11/2020 13:50 16.8 43 364.7 600 0.0 1.6 5.7 319
22/11/2020 14:00 17.2 37 350.4 600 0.0 2.4 8.7 345
22/11/2020 14:10 17.0 36 328.8 600 0.0 2.7 9.9 352
22/11/2020 14:20 16.8 35 311.0 600 0.0 3.1 11.1 351
22/11/2020 14:30 16.5 37 287.8 600 0.0 3.4 12.2 353
22/11/2020 14:40 16.3 41 262.1 600 0.0 3.3 11.9 349
22/11/2020 14:50 15.9 41 234.8 600 0.0 3.3 11.8 348
22/11/2020 15:00 15.8 41 220.5 600 0.0 3.5 12.7 349
22/11/2020 15:10 15.5 43 196.2 600 0.0 3.2 11.7 347
22/11/2020 15:20 15.2 43 171.7 600 0.0 3.4 12.2 351
22/11/2020 15:30 15.1 45 146.0 600 0.0 3.3 11.9 348
22/11/2020 15:40 14.7 46 88.3 346 0.0 2.8 10.1 345
22/11/2020 15:50 14.2 47 27.0 0 0.0 2.8 10.2 345
22/11/2020 16:00 13.7 49 23.1 0 0.0 2.5 9.0 334
22/11/2020 16:10 13.1 52 18.9 0 0.0 2.5 9.1 328
22/11/2020 16:20 12.3 56 2.7 0 0.0 2.0 7.1 310
22/11/2020 16:30 12.0 57 0.0 0 0.0 2.1 7.6 306
22/11/2020 16:40 11.0 62 0.0 0 0.0 1.4 5.1 308
22/11/2020 16:50 10.1 68 0.0 0 0.0 0.2 0.8 26
22/11/2020 17:00 9.1 74 0.0 0 0.0 0.0 0.1 259
22/11/2020 17:10 8.2 77 0.0 0 0.0 0.3 1.0 308
22/11/2020 17:20 7.6 81 0.0 0 0.0 0.0 0.0 303
22/11/2020 17:30 6.9 83 0.0 0 0.0 0.1 0.4 305
22/11/2020 17:40 6.5 85 0.0 0 0.0 0.0 0.0 0
22/11/2020 17:50 6.1 87 0.0 0 0.0 0.0 0.0 0
22/11/2020 18:00 5.7 89 0.0 0 0.0 0.1 0.2 269
22/11/2020 18:10 5.3 90 0.0 0 0.0 0.0 0.0 0
22/11/2020 18:20 5.1 91 0.0 0 0.0 0.0 0.0 0
22/11/2020 18:30 4.9 92 0.0 0 0.0 0.3 1.1 129
22/11/2020 18:40 4.6 93 0.0 0 0.0 0.0 0.1 138
22/11/2020 18:50 4.3 94 0.0 0 0.0 0.0 0.0 0
22/11/2020 19:00 4.3 94 0.0 0 0.0 0.0 0.0 0
22/11/2020 19:10 4.0 95 0.0 0 0.0 0.0 0.0 0
22/11/2020 19:20 3.8 95 0.0 0 0.0 0.0 0.0 0
22/11/2020 19:30 3.7 96 0.0 0 0.0 0.0 0.0 0
22/11/2020 19:40 3.6 96 0.0 0 0.0 0.0 0.0 0
22/11/2020 19:50 3.5 96 0.0 0 0.0 0.0 0.0 136
22/11/2020 20:00 3.2 95 0.0 0 0.0 0.0 0.1 136
22/11/2020 20:10 3.0 96 0.0 0 0.0 0.0 0.0 0
22/11/2020 20:20 3.0 96 0.0 0 0.0 0.4 1.3 131
22/11/2020 20:30 2.9 97 0.0 0 0.0 0.3 0.9 240
22/11/2020 20:40 2.9 97 0.0 0 0.0 0.0 0.0 252
22/11/2020 20:50 2.8 97 0.0 0 0.0 0.2 0.6 251
22/11/2020 21:00 2.7 97 0.0 0 0.0 0.2 0.6 151
22/11/2020 21:10 2.5 97 0.0 0 0.0 0.0 0.0 0
22/11/2020 21:20 2.4 97 0.0 0 0.0 0.0 0.0 0
22/11/2020 21:30 2.3 97 0.0 0 0.0 0.0 0.1 256
22/11/2020 21:40 2.1 97 0.0 0 0.0 0.0 0.0 0
22/11/2020 21:50 2.0 98 0.0 0 0.0 0.2 0.5 180
22/11/2020 22:00 1.8 97 0.0 0 0.0 0.0 0.0 231
22/11/2020 22:10 1.8 98 0.0 0 0.0 0.0 0.0 236
22/11/2020 22:20 1.6 97 0.0 0 0.0 0.0 0.0 0
22/11/2020 22:30 1.7 98 0.0 0 0.0 0.0 0.1 221
22/11/2020 22:40 1.6 98 0.0 0 0.0 0.0 0.0 0
22/11/2020 22:50 1.5 98 0.0 0 0.0 0.1 0.3 190
22/11/2020 23:00 1.4 98 0.0 0 0.0 0.0 0.0 0
22/11/2020 23:10 1.3 98 0.0 0 0.0 0.0 0.0 0
22/11/2020 23:20 1.2 98 0.0 0 0.0 0.0 0.0 0
22/11/2020 23:30 1.0 98 0.0 0 0.0 0.0 0.0 170
22/11/2020 23:40 0.8 98 0.0 0 0.0 0.3 1.0 260
22/11/2020 23:50 0.9 98 0.0 0 0.0 0.0 0.0 0
Anterior Página 1 de 1 Siguiente

NOTA: Tipo de datos según el color:
   - Valores diarios o 10 minutos correctos
   - Valores diarios calculados a partir de un número de datos 10 minutos menor que 144 y mayor que 120, o de un número de datos semihorarios menor que 48 y mayor que 40 (caso de las estaciones de INTIA Y Ministerio)
   - Valores diez minutos estimados


Contacto        Enlaces        Aviso legal